This is the latest recevied weather packets stored in our database for station/object SQ9SMC-13. If no packets are shown the sender has not sent any weather packets the latest 10 day(s).
| Time | Temp. | Humidity | Pressure | Rain* | Wind** | Luminosity | Snow |
|---|---|---|---|---|---|---|---|
| 1777381502 | 13.33° C | 27% | 1025.5 hPa | 0 mm | - | 522 W/m² | - |
| 1777381203 | 13.89° C | 26% | 1025.5 hPa | 0 mm | - | 531 W/m² | - |
| 1777380904 | 13.33° C | 26% | 1025.4 hPa | 0 mm | - | 542 W/m² | - |
| 1777380603 | 13.33° C | 27% | 1025.7 hPa | 0 mm | - | 542 W/m² | - |
| 1777380304 | 12.78° C | 28% | 1025.5 hPa | 0 mm | - | 556 W/m² | - |
| 1777380003 | 12.78° C | 27% | 1025.8 hPa | 0 mm | - | 562 W/m² | - |
| 1777379705 | 12.22° C | 31% | 1025.7 hPa | 0 mm | - | 564 W/m² | - |
| 1777379405 | 12.78° C | 29% | 1025.6 hPa | 0 mm | - | 577 W/m² | - |
| 1777379103 | 13.33° C | 28% | 1025.8 hPa | 0 mm | - | 581 W/m² | - |
| 1777378804 | 12.78° C | 28% | 1025.9 hPa | 0 mm | - | 587 W/m² | - |
| 1777378503 | 12.22° C | 27% | 1025.9 hPa | 0 mm | - | 594 W/m² | - |
| 1777378204 | 12.22° C | 30% | 1025.9 hPa | 0 mm | - | 603 W/m² | - |
| 1777377904 | 12.78° C | 27% | 1025.7 hPa | 0 mm | - | 605 W/m² | - |
| 1777377602 | 12.22° C | 28% | 1025.9 hPa | 0 mm | - | 608 W/m² | - |
| 1777377304 | 12.22° C | 29% | 1025.9 hPa | 0 mm | - | 614 W/m² | - |
| 1777377003 | 12.78° C | 28% | 1025.9 hPa | 0 mm | - | 619 W/m² | - |
| 1777376702 | 12.22° C | 30% | 1025.9 hPa | 0 mm | - | 625 W/m² | - |
| 1777376404 | 12.22° C | 29% | 1025.8 hPa | 0 mm | - | 628 W/m² | - |
| 1777376103 | 12.22° C | 30% | 1026 hPa | 0 mm | - | 633 W/m² | - |
| 1777375804 | 12.22° C | 28% | 1026.1 hPa | 0 mm | - | 637 W/m² | - |
| 1777375504 | 12.78° C | 28% | 1025.9 hPa | 0 mm | - | 638 W/m² | - |
| 1777375203 | 11.67° C | 30% | 1026.1 hPa | 0 mm | - | 639 W/m² | - |
| 1777374904 | 11.67° C | 29% | 1026 hPa | 0 mm | - | 642 W/m² | - |
| 1777374605 | 11.67° C | 29% | 1026.1 hPa | 0 mm | - | 644 W/m² | - |
| 1777374304 | 11.11° C | 29% | 1026.1 hPa | 0 mm | - | 646 W/m² | - |
* Rain latest hour (hover to see other rain measurements)
** Current wind speed in m/s (hover to see current wind gust speed)